createdAt,value
2018-02-02T00:00:12.954Z,20.40
2018-02-02T00:01:12.957Z,18.30
2018-02-02T00:02:13.921Z,17.50
2018-02-02T00:03:12.961Z,16.60
2018-02-02T00:04:12.950Z,18.10
2018-02-02T00:05:12.956Z,18.60
2018-02-02T00:06:12.945Z,21.20
2018-02-02T00:07:12.941Z,19.20
2018-02-02T00:08:12.964Z,19.90
2018-02-02T00:09:12.961Z,17.30
2018-02-02T00:10:12.937Z,18.50
2018-02-02T00:11:12.944Z,19.90
2018-02-02T00:12:12.933Z,20.50
2018-02-02T00:13:12.925Z,18.90
2018-02-02T00:14:12.918Z,19.70
2018-02-02T00:15:12.926Z,20.90
2018-02-02T00:16:12.996Z,20.80
2018-02-02T00:17:12.913Z,22.00
2018-02-02T00:18:12.922Z,24.70
2018-02-02T00:19:12.918Z,22.80
2018-02-02T00:20:12.912Z,24.60
2018-02-02T00:21:12.917Z,24.10
2018-02-02T00:22:12.912Z,23.10
2018-02-02T00:23:12.915Z,22.90
2018-02-02T00:24:12.901Z,20.50
2018-02-02T00:25:12.906Z,23.00
2018-02-02T00:26:13.422Z,23.70
2018-02-02T00:27:12.905Z,22.60
2018-02-02T00:28:12.903Z,21.20
2018-02-02T00:29:13.422Z,21.30
2018-02-02T00:30:12.900Z,20.60
2018-02-02T00:31:12.904Z,22.20
2018-02-02T00:32:12.900Z,21.20
2018-02-02T00:33:12.882Z,23.50
2018-02-02T00:34:12.890Z,24.50
2018-02-02T00:35:12.887Z,23.30
2018-02-02T00:36:12.884Z,22.50
2018-02-02T00:37:12.886Z,24.30
2018-02-02T00:38:12.930Z,24.70
2018-02-02T00:39:12.900Z,25.20
2018-02-02T00:40:12.879Z,24.70
2018-02-02T00:41:12.881Z,23.10
2018-02-02T00:42:12.872Z,21.90
2018-02-02T00:43:12.876Z,22.90
2018-02-02T00:44:12.872Z,24.20
2018-02-02T00:45:12.858Z,21.40
2018-02-02T00:46:12.872Z,23.20
2018-02-02T00:47:12.866Z,22.20
2018-02-02T00:48:12.870Z,23.20
2018-02-02T00:49:12.864Z,22.30
2018-02-02T00:50:12.859Z,24.90
2018-02-02T00:51:12.848Z,25.10
2018-02-02T00:52:12.852Z,26.50
2018-02-02T00:53:12.855Z,27.10
2018-02-02T00:54:12.843Z,25.70
2018-02-02T00:55:12.851Z,25.40
2018-02-02T00:56:12.848Z,25.30
2018-02-02T00:57:12.849Z,23.10
2018-02-02T00:58:12.836Z,23.40
2018-02-02T00:59:12.846Z,25.00
2018-02-02T01:00:13.426Z,24.20
2018-02-02T01:01:12.838Z,28.00
2018-02-02T01:02:12.832Z,25.80
2018-02-02T01:03:12.834Z,27.80
2018-02-02T01:04:12.828Z,26.30
2018-02-02T01:05:12.838Z,24.10
2018-02-02T01:06:12.824Z,26.10
2018-02-02T01:07:12.830Z,25.30
2018-02-02T01:08:12.826Z,24.30
2018-02-02T01:09:12.829Z,25.90
2018-02-02T01:10:12.833Z,28.50
2018-02-02T01:11:12.822Z,25.90
2018-02-02T01:12:12.817Z,27.60
2018-02-02T01:13:12.827Z,27.40
2018-02-02T01:14:12.797Z,25.60
2018-02-02T01:15:12.811Z,27.70
2018-02-02T01:16:12.817Z,25.20
2018-02-02T01:17:12.806Z,28.10
2018-02-02T01:18:12.802Z,28.20
2018-02-02T01:19:12.802Z,26.80
2018-02-02T01:20:12.793Z,27.40
2018-02-02T01:21:12.797Z,27.40
2018-02-02T01:22:12.792Z,24.20
2018-02-02T01:23:12.800Z,24.90
2018-02-02T01:24:12.799Z,25.50
2018-02-02T01:25:12.785Z,26.40
2018-02-02T01:26:12.802Z,24.30
2018-02-02T01:27:12.784Z,27.20
2018-02-02T01:28:12.781Z,24.60
2018-02-02T01:29:12.793Z,24.70
2018-02-02T01:30:12.775Z,24.80
2018-02-02T01:31:12.792Z,26.20
2018-02-02T01:32:12.779Z,25.40
2018-02-02T01:33:12.771Z,27.10
2018-02-02T01:34:12.770Z,25.20
2018-02-02T01:35:12.778Z,24.40
2018-02-02T01:36:12.775Z,23.70
2018-02-02T01:37:12.756Z,23.90
2018-02-02T01:38:12.760Z,24.30
2018-02-02T01:39:12.761Z,26.70
2018-02-02T01:40:12.761Z,24.90
2018-02-02T01:41:12.758Z,25.90
2018-02-02T01:42:12.753Z,24.60
2018-02-02T01:43:12.758Z,23.80
2018-02-02T01:44:13.456Z,24.20
2018-02-02T01:45:12.740Z,24.00
2018-02-02T01:46:12.764Z,25.30
2018-02-02T01:47:12.746Z,25.30
2018-02-02T01:48:12.748Z,22.00
2018-02-02T01:49:12.744Z,21.60
2018-02-02T01:50:12.741Z,23.50
2018-02-02T01:51:12.743Z,25.80
2018-02-02T01:52:12.731Z,23.60
2018-02-02T01:53:12.721Z,21.30
2018-02-02T01:54:12.737Z,22.90
2018-02-02T01:55:12.736Z,22.50
2018-02-02T01:56:12.727Z,23.80
2018-02-02T01:57:12.856Z,23.50
2018-02-02T01:58:12.720Z,22.70
2018-02-02T01:59:12.721Z,21.80
2018-02-02T02:00:12.738Z,22.00
2018-02-02T02:01:12.715Z,23.60
2018-02-02T02:02:12.722Z,24.00
2018-02-02T02:03:12.737Z,21.40
2018-02-02T02:04:12.712Z,21.10
2018-02-02T02:05:12.717Z,21.70
2018-02-02T02:06:12.715Z,22.20
2018-02-02T02:07:12.701Z,21.60
2018-02-02T02:08:12.708Z,20.70
2018-02-02T02:09:12.705Z,22.40
2018-02-02T02:10:13.438Z,22.90
2018-02-02T02:11:12.699Z,22.00
2018-02-02T02:12:12.701Z,24.60
2018-02-02T02:13:12.690Z,23.30
2018-02-02T02:14:12.696Z,21.30
2018-02-02T02:15:12.682Z,22.30
2018-02-02T02:16:12.688Z,21.70
2018-02-02T02:17:12.693Z,22.90
2018-02-02T02:18:12.684Z,23.20
2018-02-02T02:19:13.438Z,21.80
2018-02-02T02:20:12.681Z,23.50
2018-02-02T02:21:12.675Z,21.70
2018-02-02T02:22:12.675Z,20.60
2018-02-02T02:23:13.439Z,22.70
2018-02-02T02:24:12.675Z,22.00
2018-02-02T02:25:12.670Z,22.70
2018-02-02T02:26:12.669Z,21.80
2018-02-02T02:27:12.673Z,23.40
2018-02-02T02:28:12.666Z,22.70
2018-02-02T02:29:12.663Z,23.40
2018-02-02T02:30:12.684Z,23.80
2018-02-02T02:31:12.711Z,23.40
2018-02-02T02:32:12.664Z,21.50
2018-02-02T02:33:12.659Z,23.70
2018-02-02T02:34:12.651Z,22.40
2018-02-02T02:35:12.652Z,21.10
2018-02-02T02:36:12.647Z,23.20
2018-02-02T02:37:12.649Z,22.00
2018-02-02T02:38:12.654Z,21.40
2018-02-02T02:39:12.647Z,22.40
2018-02-02T02:40:12.639Z,21.10
2018-02-02T02:41:12.661Z,21.50
2018-02-02T02:42:13.447Z,22.10
2018-02-02T02:43:12.639Z,23.10
2018-02-02T02:44:12.665Z,24.80
2018-02-02T02:45:12.638Z,22.20
2018-02-02T02:46:12.621Z,23.00
2018-02-02T02:47:12.638Z,21.80
2018-02-02T02:48:12.625Z,22.30
2018-02-02T02:49:12.634Z,23.20
2018-02-02T02:50:12.618Z,26.00
2018-02-02T02:51:12.623Z,23.60
2018-02-02T02:52:12.644Z,25.40
2018-02-02T02:53:12.628Z,27.20
2018-02-02T02:54:12.616Z,23.70
2018-02-02T02:55:12.611Z,23.20
2018-02-02T02:56:12.598Z,25.80
2018-02-02T02:57:12.640Z,23.60
2018-02-02T02:58:12.603Z,24.60
2018-02-02T02:59:12.597Z,26.90
2018-02-02T03:00:12.607Z,24.90
2018-02-02T03:01:12.597Z,26.00
2018-02-02T03:02:12.597Z,28.90
2018-02-02T03:03:12.592Z,27.20
2018-02-02T03:04:12.592Z,27.70
2018-02-02T03:05:12.590Z,26.50
2018-02-02T03:06:12.590Z,29.70
2018-02-02T03:07:13.444Z,27.20
2018-02-02T03:08:12.588Z,28.40
2018-02-02T03:09:12.583Z,25.30
2018-02-02T03:10:12.593Z,26.10
2018-02-02T03:11:12.577Z,28.50
2018-02-02T03:12:12.577Z,29.10
2018-02-02T03:13:12.571Z,27.70
2018-02-02T03:14:12.572Z,29.50
2018-02-02T03:15:12.568Z,27.70
2018-02-02T03:16:12.553Z,28.50
2018-02-02T03:17:12.569Z,29.60
2018-02-02T03:18:12.588Z,29.20
2018-02-02T03:19:12.556Z,28.80
2018-02-02T03:20:12.560Z,29.10
2018-02-02T03:21:12.547Z,29.30
2018-02-02T03:22:12.550Z,29.20
2018-02-02T03:23:12.552Z,29.10
2018-02-02T03:24:12.545Z,30.90
2018-02-02T03:25:12.545Z,29.50
2018-02-02T03:26:12.544Z,30.50
2018-02-02T03:27:12.539Z,32.60
2018-02-02T03:28:12.528Z,28.10
2018-02-02T03:29:12.540Z,30.80
2018-02-02T03:30:12.531Z,32.60
2018-02-02T03:31:12.527Z,30.90
2018-02-02T03:32:12.529Z,29.90
2018-02-02T03:33:12.528Z,28.50
2018-02-02T03:34:12.529Z,30.00
2018-02-02T03:35:12.529Z,32.70
2018-02-02T03:36:12.517Z,30.20
2018-02-02T03:37:12.518Z,30.90
2018-02-02T03:38:12.515Z,29.30
2018-02-02T03:39:12.513Z,30.00
2018-02-02T03:40:12.513Z,29.20
2018-02-02T03:41:12.508Z,28.70
2018-02-02T03:42:12.494Z,30.60
2018-02-02T03:43:12.501Z,30.90
2018-02-02T03:44:12.569Z,31.00
2018-02-02T03:45:12.497Z,29.80
2018-02-02T03:46:12.512Z,30.30
2018-02-02T03:47:12.490Z,31.60
2018-02-02T03:48:12.487Z,31.70
2018-02-02T03:49:12.548Z,30.00
2018-02-02T03:50:12.487Z,31.10
2018-02-02T03:51:12.484Z,30.60
2018-02-02T03:52:12.522Z,31.10
2018-02-02T03:53:12.471Z,29.80
2018-02-02T03:54:12.471Z,29.80
2018-02-02T03:55:12.470Z,30.30
2018-02-02T03:56:12.464Z,30.50
2018-02-02T03:57:12.468Z,30.10
2018-02-02T03:58:12.470Z,30.60
2018-02-02T03:59:12.473Z,30.30
2018-02-02T04:00:12.471Z,30.90
2018-02-02T04:01:12.463Z,32.20
2018-02-02T04:02:12.462Z,31.00
2018-02-02T04:03:12.458Z,30.00
2018-02-02T04:04:12.452Z,29.70
2018-02-02T04:05:12.458Z,30.80
2018-02-02T04:06:12.446Z,30.20
2018-02-02T04:07:12.465Z,31.50
2018-02-02T04:08:12.438Z,31.60
2018-02-02T04:09:12.438Z,32.20
2018-02-02T04:10:12.445Z,31.30
2018-02-02T04:11:12.444Z,30.50
2018-02-02T04:12:12.438Z,31.50
2018-02-02T04:13:12.433Z,31.60
2018-02-02T04:14:12.433Z,30.30
2018-02-02T04:15:12.435Z,31.00
2018-02-02T04:16:12.422Z,30.60
2018-02-02T04:17:12.410Z,31.60
2018-02-02T04:18:12.508Z,32.50
2018-02-02T04:19:12.418Z,32.50
2018-02-02T04:20:12.422Z,31.10
2018-02-02T04:21:12.412Z,32.20
2018-02-02T04:22:12.408Z,30.80
2018-02-02T04:23:12.409Z,31.90
2018-02-02T04:24:12.404Z,33.70
2018-02-02T04:25:12.401Z,32.20
2018-02-02T04:26:12.400Z,33.70
2018-02-02T04:27:12.404Z,33.10
2018-02-02T04:28:12.395Z,32.10
2018-02-02T04:29:12.397Z,33.50
2018-02-02T04:30:12.388Z,32.60
2018-02-02T04:31:12.390Z,34.00
2018-02-02T04:32:12.958Z,33.20
2018-02-02T04:33:12.382Z,33.50
2018-02-02T04:34:12.380Z,33.30
2018-02-02T04:35:12.377Z,33.80
2018-02-02T04:36:12.391Z,33.40
2018-02-02T04:37:12.375Z,34.60
2018-02-02T04:38:12.375Z,33.10
2018-02-02T04:39:12.458Z,33.30
2018-02-02T04:40:12.362Z,33.60
2018-02-02T04:41:12.411Z,36.20
2018-02-02T04:42:12.961Z,35.70
2018-02-02T04:43:12.434Z,33.90
2018-02-02T04:44:12.484Z,34.20
2018-02-02T04:45:12.396Z,34.90
2018-02-02T04:46:12.633Z,33.60
2018-02-02T04:47:12.573Z,33.50
2018-02-02T04:48:12.349Z,33.20
2018-02-02T04:49:12.402Z,32.90
2018-02-02T04:50:12.343Z,35.10
2018-02-02T04:51:12.397Z,33.40
2018-02-02T04:52:12.336Z,32.10
2018-02-02T04:53:12.342Z,34.70
2018-02-02T04:54:12.337Z,31.60
2018-02-02T04:55:12.753Z,32.60
2018-02-02T04:56:12.331Z,33.70
2018-02-02T04:57:14.066Z,33.20
2018-02-02T04:58:12.342Z,33.50
2018-02-02T04:59:12.322Z,31.90
2018-02-02T05:00:12.523Z,32.30
2018-02-02T05:01:12.326Z,31.60
2018-02-02T05:02:13.003Z,31.40
2018-02-02T05:03:12.310Z,33.60
2018-02-02T05:04:12.331Z,31.60
2018-02-02T05:05:12.306Z,33.00
2018-02-02T05:06:12.306Z,31.70
2018-02-02T05:07:12.310Z,34.50
2018-02-02T05:08:12.309Z,33.80
2018-02-02T05:09:12.302Z,33.10
2018-02-02T05:10:12.301Z,33.10
2018-02-02T05:11:12.300Z,32.70
2018-02-02T05:12:12.292Z,34.60
2018-02-02T05:13:12.291Z,34.60
2018-02-02T05:14:12.293Z,32.10
2018-02-02T05:15:12.285Z,32.60
2018-02-02T05:16:12.281Z,31.70
2018-02-02T05:17:12.275Z,33.20
2018-02-02T05:18:12.336Z,31.20
2018-02-02T05:19:12.281Z,31.40
2018-02-02T05:20:12.270Z,32.90
2018-02-02T05:21:12.272Z,30.70
2018-02-02T05:22:12.284Z,31.90
2018-02-02T05:23:12.274Z,30.90
2018-02-02T05:24:12.263Z,32.90
2018-02-02T05:25:12.257Z,32.50
2018-02-02T05:26:12.254Z,31.30
2018-02-02T05:27:12.257Z,32.40
2018-02-02T05:28:12.257Z,32.10
2018-02-02T05:29:12.614Z,31.80
2018-02-02T05:30:12.249Z,31.30
2018-02-02T05:31:12.257Z,31.20
2018-02-02T05:32:13.466Z,28.90
2018-02-02T05:33:12.245Z,30.50
2018-02-02T05:34:12.239Z,31.00
2018-02-02T05:35:12.265Z,29.60
2018-02-02T05:36:12.238Z,29.90
2018-02-02T05:37:12.237Z,29.90
2018-02-02T05:38:12.532Z,30.50
2018-02-02T05:39:12.231Z,29.20
2018-02-02T05:40:12.222Z,28.10
2018-02-02T05:41:12.278Z,30.00
2018-02-02T05:42:12.234Z,28.40
2018-02-02T05:43:12.225Z,29.30
2018-02-02T05:44:12.217Z,29.20
2018-02-02T05:45:12.412Z,28.60
2018-02-02T05:46:12.206Z,27.50
2018-02-02T05:47:12.212Z,27.80
2018-02-02T05:48:12.213Z,28.60
2018-02-02T05:49:12.382Z,28.00
2018-02-02T05:50:12.210Z,29.00
2018-02-02T05:51:12.211Z,28.10
2018-02-02T05:52:12.206Z,29.60
2018-02-02T05:53:12.207Z,30.00
2018-02-02T05:54:12.211Z,30.40
2018-02-02T05:55:12.834Z,29.90
2018-02-02T05:56:12.188Z,29.20
2018-02-02T05:57:12.707Z,29.80
2018-02-02T05:58:12.187Z,30.10
2018-02-02T05:59:12.198Z,29.10
2018-02-02T06:00:12.192Z,29.10
2018-02-02T06:01:12.194Z,29.50
2018-02-02T06:02:12.178Z,30.40
2018-02-02T06:03:12.367Z,29.70
2018-02-02T06:04:12.176Z,30.20
2018-02-02T06:05:12.168Z,30.80
2018-02-02T06:06:12.175Z,31.30
2018-02-02T06:07:12.168Z,30.50
2018-02-02T06:08:12.169Z,30.00
2018-02-02T06:09:12.166Z,31.80
2018-02-02T06:10:12.162Z,29.10
2018-02-02T06:11:12.609Z,29.10
2018-02-02T06:12:12.187Z,28.70
2018-02-02T06:13:12.307Z,27.90
2018-02-02T06:14:12.147Z,29.80
2018-02-02T06:15:12.154Z,33.00
2018-02-02T06:16:12.170Z,31.60
2018-02-02T06:17:12.203Z,32.10
2018-02-02T06:18:12.160Z,30.10
2018-02-02T06:19:12.133Z,30.80
2018-02-02T06:20:12.138Z,31.60
2018-02-02T06:21:12.122Z,30.50
2018-02-02T06:22:12.130Z,30.00
2018-02-02T06:23:12.140Z,30.70
2018-02-02T06:24:12.156Z,30.50
2018-02-02T06:25:12.171Z,30.90
2018-02-02T06:26:12.976Z,31.40
2018-02-02T06:27:12.107Z,31.40
2018-02-02T06:28:12.125Z,31.70
2018-02-02T06:29:12.114Z,30.30
2018-02-02T06:30:12.412Z,32.10
2018-02-02T06:31:12.105Z,31.20
2018-02-02T06:32:12.099Z,32.40
2018-02-02T06:33:12.101Z,31.40
2018-02-02T06:34:12.101Z,32.40
2018-02-02T06:35:12.088Z,33.60
2018-02-02T06:36:12.740Z,31.70
2018-02-02T06:37:12.090Z,31.50
2018-02-02T06:38:12.126Z,32.30
2018-02-02T06:39:12.082Z,32.40
2018-02-02T06:40:12.089Z,31.40
2018-02-02T06:41:12.091Z,33.10
2018-02-02T06:42:12.067Z,31.60
2018-02-02T06:43:12.087Z,33.00
2018-02-02T06:44:12.073Z,31.70
2018-02-02T06:45:12.071Z,31.20
2018-02-02T06:46:12.069Z,32.10
2018-02-02T06:47:12.069Z,32.10
2018-02-02T06:48:12.067Z,33.10
2018-02-02T06:49:12.104Z,30.60
2018-02-02T06:50:12.053Z,32.10
2018-02-02T06:51:12.974Z,31.40
2018-02-02T06:52:12.095Z,30.20
2018-02-02T06:53:12.054Z,32.10
2018-02-02T06:54:12.057Z,31.30
2018-02-02T06:55:12.055Z,30.90
2018-02-02T06:56:12.056Z,31.30
2018-02-02T06:57:12.044Z,32.40
2018-02-02T06:58:12.067Z,29.90
2018-02-02T06:59:12.149Z,33.20
2018-02-02T07:00:12.036Z,31.80
2018-02-02T07:01:12.114Z,32.00
2018-02-02T07:02:12.033Z,30.40
2018-02-02T07:03:12.035Z,30.70
2018-02-02T07:04:12.036Z,32.30
2018-02-02T07:05:12.032Z,33.80
2018-02-02T07:06:12.031Z,31.90
2018-02-02T07:07:12.031Z,30.50
2018-02-02T07:08:12.478Z,30.60
2018-02-02T07:09:12.078Z,30.40
2018-02-02T07:10:12.007Z,33.60
2018-02-02T07:11:12.058Z,32.00
2018-02-02T07:12:12.022Z,34.10
2018-02-02T07:13:12.003Z,29.60
2018-02-02T07:14:12.025Z,30.80
2018-02-02T07:15:12.007Z,31.90
2018-02-02T07:16:12.007Z,29.90
2018-02-02T07:17:12.008Z,31.50
2018-02-02T07:18:12.013Z,28.20
2018-02-02T07:19:12.001Z,31.40
2018-02-02T07:20:11.990Z,30.50
2018-02-02T07:21:11.991Z,29.40
2018-02-02T07:22:12.985Z,30.20
2018-02-02T07:23:12.191Z,30.30
2018-02-02T07:24:11.986Z,31.00
2018-02-02T07:25:12.003Z,33.20
2018-02-02T07:26:11.990Z,30.70
2018-02-02T07:27:11.989Z,30.60
2018-02-02T07:28:11.982Z,30.00
2018-02-02T07:29:11.981Z,28.20
2018-02-02T07:30:11.981Z,29.00
2018-02-02T07:31:11.970Z,28.80
2018-02-02T07:32:11.971Z,29.60
2018-02-02T07:33:11.978Z,30.50
2018-02-02T07:34:11.963Z,28.70
2018-02-02T07:35:11.956Z,26.40
2018-02-02T07:36:11.962Z,27.70
2018-02-02T07:37:11.964Z,27.80
2018-02-02T07:38:12.002Z,26.70
2018-02-02T07:39:11.960Z,31.20
2018-02-02T07:40:11.954Z,26.70
2018-02-02T07:41:11.964Z,25.60
2018-02-02T07:42:11.957Z,26.00
2018-02-02T07:43:11.979Z,27.80
2018-02-02T07:44:11.959Z,24.30
2018-02-02T07:45:11.947Z,27.90
2018-02-02T07:46:11.965Z,26.40
2018-02-02T07:47:11.967Z,24.40
2018-02-02T07:48:11.933Z,23.60
2018-02-02T07:49:11.945Z,26.60
2018-02-02T07:50:11.956Z,24.40
2018-02-02T07:51:11.957Z,24.70
2018-02-02T07:52:11.929Z,22.30
2018-02-02T07:53:12.490Z,25.90
2018-02-02T07:54:11.936Z,21.80
2018-02-02T07:55:11.971Z,22.00
2018-02-02T07:56:11.932Z,23.50
2018-02-02T07:57:11.926Z,22.90
2018-02-02T07:58:11.928Z,19.20
2018-02-02T07:59:11.916Z,20.00
2018-02-02T08:00:12.493Z,18.80
2018-02-02T08:01:11.981Z,20.40
2018-02-02T08:02:11.940Z,17.90
2018-02-02T08:03:11.919Z,17.00
2018-02-02T08:04:11.930Z,20.40
2018-02-02T08:05:11.901Z,18.30
2018-02-02T08:06:11.898Z,19.40
2018-02-02T08:07:11.904Z,18.60
2018-02-02T08:08:11.907Z,20.90
2018-02-02T08:09:11.910Z,23.30
2018-02-02T08:10:11.900Z,17.60
2018-02-02T08:11:12.180Z,21.50
2018-02-02T08:12:11.895Z,20.50
2018-02-02T08:13:11.902Z,21.60
2018-02-02T08:14:11.889Z,19.80
2018-02-02T08:15:11.913Z,19.80
2018-02-02T08:16:11.926Z,22.80
2018-02-02T08:17:11.881Z,20.40
2018-02-02T08:18:11.876Z,20.50
2018-02-02T08:19:11.874Z,22.10
2018-02-02T08:20:11.881Z,18.60
2018-02-02T08:21:11.866Z,22.30
2018-02-02T08:22:11.885Z,20.90
2018-02-02T08:23:11.877Z,21.20
2018-02-02T08:24:11.897Z,24.30
2018-02-02T08:25:11.877Z,20.80
2018-02-02T08:26:11.864Z,19.00
2018-02-02T08:27:11.868Z,20.20
2018-02-02T08:28:11.865Z,20.80
2018-02-02T08:29:11.859Z,22.30
2018-02-02T08:30:11.857Z,22.50
2018-02-02T08:31:11.863Z,21.20
2018-02-02T08:32:11.857Z,19.90
2018-02-02T08:33:11.849Z,21.20
2018-02-02T08:34:11.848Z,17.60
2018-02-02T08:35:11.912Z,18.20
2018-02-02T08:36:11.848Z,18.90
2018-02-02T08:37:11.857Z,19.70
2018-02-02T08:38:11.847Z,23.40
2018-02-02T08:39:11.843Z,17.70
2018-02-02T08:40:11.945Z,19.70
2018-02-02T08:41:11.831Z,18.10
2018-02-02T08:42:11.894Z,49.90
2018-02-02T08:43:11.858Z,35.50
2018-02-02T08:44:11.840Z,27.80
2018-02-02T08:45:11.841Z,20.60
2018-02-02T08:46:11.833Z,19.10
2018-02-02T08:47:11.824Z,19.10
2018-02-02T08:48:11.868Z,20.00
2018-02-02T08:49:11.828Z,21.10
2018-02-02T08:50:11.833Z,20.40
2018-02-02T08:51:11.834Z,20.10
2018-02-02T08:52:11.832Z,22.80
2018-02-02T08:53:11.935Z,21.20
2018-02-02T08:54:11.825Z,21.70
2018-02-02T08:55:12.494Z,22.10
2018-02-02T08:56:11.836Z,25.00
2018-02-02T08:57:11.877Z,24.10
2018-02-02T08:58:11.989Z,24.70
2018-02-02T08:59:11.816Z,24.60
2018-02-02T09:00:11.816Z,24.50
2018-02-02T09:01:11.849Z,25.90
2018-02-02T09:02:11.803Z,28.40
2018-02-02T09:03:11.875Z,24.70
2018-02-02T09:04:11.845Z,26.70
2018-02-02T09:05:11.797Z,25.80
2018-02-02T09:06:11.821Z,25.90
2018-02-02T09:07:11.806Z,27.80
2018-02-02T09:08:11.795Z,27.20
2018-02-02T09:09:11.816Z,29.00
2018-02-02T09:10:11.797Z,26.00
2018-02-02T09:11:11.802Z,27.60
2018-02-02T09:12:11.809Z,27.90
2018-02-02T09:13:11.787Z,28.50
2018-02-02T09:14:11.878Z,27.30
2018-02-02T09:15:11.784Z,27.40
2018-02-02T09:16:11.764Z,26.30
2018-02-02T09:17:11.790Z,26.50
2018-02-02T09:18:12.498Z,29.20
2018-02-02T09:19:11.888Z,26.00
2018-02-02T09:20:11.784Z,26.10
2018-02-02T09:21:11.778Z,30.70
2018-02-02T09:22:12.567Z,27.20
2018-02-02T09:23:11.770Z,27.30
2018-02-02T09:24:11.772Z,25.00
2018-02-02T09:25:11.797Z,25.40
2018-02-02T09:26:12.049Z,25.30
2018-02-02T09:27:12.506Z,25.40
2018-02-02T09:28:11.765Z,26.60
2018-02-02T09:29:11.786Z,23.70
2018-02-02T09:30:11.797Z,25.30
2018-02-02T09:31:11.752Z,24.50
2018-02-02T09:32:11.751Z,24.30
2018-02-02T09:33:11.756Z,25.00
2018-02-02T09:34:11.751Z,25.30
2018-02-02T09:35:11.752Z,26.80
2018-02-02T09:36:11.776Z,24.60
2018-02-02T09:37:11.749Z,22.90
2018-02-02T09:38:11.746Z,22.30
2018-02-02T09:39:11.743Z,26.30
2018-02-02T09:40:11.910Z,25.80
2018-02-02T09:41:11.741Z,24.80
2018-02-02T09:42:11.778Z,24.60
2018-02-02T09:43:12.502Z,24.40
2018-02-02T09:44:11.745Z,22.60
2018-02-02T09:45:11.734Z,23.40
2018-02-02T09:46:11.793Z,24.40
2018-02-02T09:47:11.750Z,23.00
2018-02-02T09:48:11.819Z,23.20
2018-02-02T09:49:11.753Z,22.50
2018-02-02T09:50:11.719Z,22.60
2018-02-02T09:51:11.969Z,23.70
2018-02-02T09:52:11.747Z,23.20
2018-02-02T09:53:11.780Z,22.60
2018-02-02T09:54:11.769Z,23.80
2018-02-02T09:55:11.752Z,24.50
2018-02-02T09:56:11.740Z,26.20
2018-02-02T09:57:11.724Z,25.00
2018-02-02T09:58:11.722Z,24.30
2018-02-02T09:59:12.739Z,24.90
2018-02-02T10:00:11.734Z,23.50
2018-02-02T10:01:11.773Z,23.00
2018-02-02T10:02:11.742Z,24.60
2018-02-02T10:03:11.715Z,22.50
2018-02-02T10:04:11.712Z,21.70
2018-02-02T10:05:11.716Z,22.80
2018-02-02T10:06:11.770Z,21.10
2018-02-02T10:07:12.045Z,24.10
2018-02-02T10:08:11.719Z,23.60
2018-02-02T10:09:11.723Z,22.60
2018-02-02T10:10:11.715Z,22.60
2018-02-02T10:11:11.722Z,22.90
2018-02-02T10:12:12.513Z,21.90
2018-02-02T10:13:11.715Z,22.80
2018-02-02T10:14:11.697Z,24.00
2018-02-02T10:15:11.707Z,22.20
2018-02-02T10:16:11.972Z,20.50
2018-02-02T10:17:12.509Z,21.00
2018-02-02T10:18:11.714Z,20.70
2018-02-02T10:19:11.743Z,20.80
2018-02-02T10:20:11.733Z,20.80
2018-02-02T10:21:11.705Z,20.30
2018-02-02T10:22:11.711Z,20.10
2018-02-02T10:23:11.695Z,19.10
2018-02-02T10:24:11.716Z,18.90
2018-02-02T10:25:11.701Z,19.50
2018-02-02T10:26:11.698Z,19.40
2018-02-02T10:27:11.707Z,19.30
2018-02-02T10:28:11.702Z,21.00
2018-02-02T10:29:11.706Z,20.10
2018-02-02T10:30:11.814Z,18.60
2018-02-02T10:31:11.712Z,17.90
2018-02-02T10:32:11.747Z,17.70
2018-02-02T10:33:11.719Z,19.30
2018-02-02T10:34:11.694Z,17.90
2018-02-02T10:35:11.688Z,18.60
2018-02-02T10:36:11.685Z,18.50
2018-02-02T10:37:11.697Z,20.20
2018-02-02T10:38:11.684Z,20.20
2018-02-02T10:39:11.691Z,22.30
2018-02-02T10:40:11.694Z,18.90
2018-02-02T10:41:11.684Z,17.70
2018-02-02T10:42:11.742Z,18.20
2018-02-02T10:43:11.817Z,15.90
2018-02-02T10:44:11.937Z,16.20
2018-02-02T10:45:11.677Z,17.20
2018-02-02T10:46:11.797Z,17.30
2018-02-02T10:47:11.677Z,16.30
2018-02-02T10:48:11.681Z,15.80
2018-02-02T10:49:11.777Z,15.40
2018-02-02T10:50:11.691Z,15.90
2018-02-02T10:51:12.519Z,13.80
2018-02-02T10:52:11.680Z,14.40
2018-02-02T10:53:11.685Z,15.60
2018-02-02T10:54:11.674Z,14.70
2018-02-02T10:55:11.660Z,14.90
2018-02-02T10:56:11.682Z,13.70
2018-02-02T10:57:12.067Z,14.90
2018-02-02T10:58:11.675Z,15.10
2018-02-02T10:59:11.660Z,15.90
2018-02-02T11:00:11.684Z,14.90
2018-02-02T11:01:11.785Z,15.10
2018-02-02T11:02:11.661Z,14.90
2018-02-02T11:03:11.695Z,15.70
2018-02-02T11:04:11.747Z,15.30
2018-02-02T11:05:11.659Z,14.70
2018-02-02T11:06:11.662Z,15.10
2018-02-02T11:07:11.686Z,16.30
2018-02-02T11:08:11.666Z,16.20
2018-02-02T11:09:11.668Z,16.10
2018-02-02T11:10:11.665Z,17.20
2018-02-02T11:11:11.668Z,17.20
2018-02-02T11:12:11.673Z,16.90
2018-02-02T11:13:11.665Z,19.80
2018-02-02T11:14:12.602Z,17.70
2018-02-02T11:15:11.669Z,18.30
2018-02-02T11:16:11.693Z,18.00
2018-02-02T11:17:12.524Z,16.20
2018-02-02T11:18:11.689Z,16.50
2018-02-02T11:19:12.054Z,18.80
2018-02-02T11:20:11.735Z,20.30
2018-02-02T11:21:11.675Z,27.40
2018-02-02T11:22:11.651Z,25.20
2018-02-02T11:23:12.530Z,24.20
2018-02-02T11:24:11.655Z,22.70
2018-02-02T11:25:11.662Z,19.40
2018-02-02T11:26:11.703Z,31.50
2018-02-02T11:27:11.659Z,19.60
2018-02-02T11:28:11.729Z,31.80
2018-02-02T11:29:11.652Z,25.40
2018-02-02T11:30:11.651Z,21.20
2018-02-02T11:31:11.676Z,19.40
2018-02-02T11:32:11.825Z,18.70
2018-02-02T11:33:11.683Z,21.90
2018-02-02T11:34:11.650Z,33.90
2018-02-02T11:35:11.649Z,25.20
2018-02-02T11:36:11.657Z,28.00
2018-02-02T11:37:11.689Z,24.70
2018-02-02T11:38:11.697Z,42.80
2018-02-02T11:39:11.650Z,27.90
2018-02-02T11:40:11.644Z,91.20
2018-02-02T11:41:11.662Z,29.70
2018-02-02T11:42:11.652Z,58.90
2018-02-02T11:43:11.741Z,27.00
2018-02-02T11:44:11.644Z,20.70
2018-02-02T11:45:11.680Z,20.10
2018-02-02T11:46:11.645Z,18.30
2018-02-02T11:47:11.677Z,33.90
2018-02-02T11:48:11.733Z,34.60
2018-02-02T11:49:11.760Z,30.40
2018-02-02T11:50:11.961Z,30.10
2018-02-02T11:51:11.679Z,22.90
2018-02-02T11:52:11.678Z,26.50
2018-02-02T11:53:11.703Z,30.30
2018-02-02T11:54:11.797Z,24.40
2018-02-02T11:55:11.645Z,21.30
2018-02-02T11:56:11.673Z,18.90
2018-02-02T11:57:11.761Z,18.40
2018-02-02T11:58:11.641Z,19.00
2018-02-02T11:59:11.651Z,19.50
2018-02-02T12:00:11.640Z,16.80
2018-02-02T12:01:11.650Z,17.30
2018-02-02T12:02:11.650Z,16.50
2018-02-02T12:03:11.661Z,17.60
2018-02-02T12:04:11.651Z,17.80
2018-02-02T12:05:11.639Z,16.80
2018-02-02T12:06:12.236Z,15.50
2018-02-02T12:07:12.533Z,15.90
2018-02-02T12:08:11.639Z,15.10
2018-02-02T12:09:11.659Z,17.20
2018-02-02T12:10:11.639Z,15.90
2018-02-02T12:11:11.638Z,16.80
2018-02-02T12:12:12.536Z,17.00
2018-02-02T12:13:11.631Z,16.00
2018-02-02T12:14:11.627Z,14.80
2018-02-02T12:15:11.702Z,16.40
2018-02-02T12:16:11.653Z,15.10
2018-02-02T12:17:11.656Z,15.70
2018-02-02T12:18:11.629Z,15.90
2018-02-02T12:19:11.633Z,15.30
2018-02-02T12:20:11.636Z,16.30
2018-02-02T12:21:11.643Z,15.40
2018-02-02T12:22:11.750Z,15.70
2018-02-02T12:23:11.644Z,15.80
2018-02-02T12:24:11.647Z,16.00
2018-02-02T12:25:11.630Z,14.40
2018-02-02T12:26:11.649Z,13.20
2018-02-02T12:27:11.637Z,14.70
2018-02-02T12:28:12.539Z,13.20
2018-02-02T12:29:11.626Z,13.60
2018-02-02T12:30:11.941Z,12.40
2018-02-02T12:31:11.632Z,12.50
2018-02-02T12:32:11.634Z,13.70
2018-02-02T12:33:11.694Z,13.10
2018-02-02T12:34:11.659Z,11.70
2018-02-02T12:35:11.634Z,12.60
2018-02-02T12:36:11.633Z,13.50
2018-02-02T12:37:11.646Z,13.70
2018-02-02T12:38:12.544Z,14.70
2018-02-02T12:39:11.696Z,14.70
2018-02-02T12:40:11.630Z,14.30
2018-02-02T12:41:11.660Z,12.20
2018-02-02T12:42:11.660Z,12.00
2018-02-02T12:43:11.638Z,11.50
2018-02-02T12:44:11.657Z,9.70
2018-02-02T12:45:11.636Z,9.30
2018-02-02T12:46:11.637Z,8.90
2018-02-02T12:47:11.645Z,8.20
2018-02-02T12:48:11.652Z,12.70
2018-02-02T12:49:11.651Z,12.20
2018-02-02T12:50:11.633Z,8.10
2018-02-02T12:51:12.574Z,7.80
2018-02-02T12:52:11.684Z,9.00